createdAt,value
2024-01-17T00:00:07.302Z,8.07
2024-01-17T00:03:14.904Z,8.03
2024-01-17T00:06:17.538Z,7.90
2024-01-17T00:09:21.073Z,8.77
2024-01-17T00:12:23.906Z,9.52
2024-01-17T00:15:26.968Z,9.20
2024-01-17T00:18:29.994Z,9.13
2024-01-17T00:21:33.057Z,8.48
2024-01-17T00:24:35.589Z,8.00
2024-01-17T00:27:39.531Z,8.68
2024-01-17T00:30:42.113Z,8.25
2024-01-17T00:33:45.116Z,8.13
2024-01-17T00:36:47.988Z,8.73
2024-01-17T00:39:51.759Z,8.13
2024-01-17T00:42:54.364Z,7.45
2024-01-17T00:45:57.171Z,8.77
2024-01-17T00:49:01.145Z,8.03
2024-01-17T00:52:04.561Z,7.75
2024-01-17T00:55:07.973Z,8.77
2024-01-17T00:58:10.797Z,7.45
2024-01-17T01:01:13.390Z,7.80
2024-01-17T01:04:16.362Z,8.70
2024-01-17T01:07:20.052Z,7.50
2024-01-17T01:10:22.918Z,8.38
2024-01-17T01:13:25.497Z,7.35
2024-01-17T01:16:28.644Z,7.85
2024-01-17T01:19:32.180Z,6.80
2024-01-17T01:22:35.130Z,7.40
2024-01-17T01:25:37.711Z,6.95
2024-01-17T01:28:40.585Z,7.80
2024-01-17T01:31:43.565Z,7.75
2024-01-17T01:34:46.770Z,7.30
2024-01-17T01:37:49.639Z,7.75
2024-01-17T01:40:52.534Z,8.30
2024-01-17T01:43:55.562Z,8.20
2024-01-17T01:46:59.303Z,9.32
2024-01-17T01:50:01.937Z,8.10
2024-01-17T01:53:05.641Z,7.40
2024-01-17T01:56:09.998Z,8.35
2024-01-17T01:59:13.786Z,7.00
2024-01-17T02:02:17.264Z,7.63
2024-01-17T02:05:20.706Z,7.70
2024-01-17T02:08:23.782Z,8.00
2024-01-17T02:11:26.760Z,7.03
2024-01-17T02:14:30.087Z,7.70
2024-01-17T02:17:33.075Z,7.65
2024-01-17T02:20:35.839Z,7.67
2024-01-17T02:23:38.464Z,7.47
2024-01-17T02:26:41.197Z,7.18
2024-01-17T02:29:47.208Z,8.68
2024-01-17T02:32:50.775Z,7.40
2024-01-17T02:35:53.821Z,6.50
2024-01-17T02:38:56.736Z,6.85
2024-01-17T02:41:59.467Z,7.95
2024-01-17T02:45:02.331Z,6.97
2024-01-17T02:48:05.641Z,6.38
2024-01-17T02:51:09.356Z,7.37
2024-01-17T02:54:13.551Z,7.80
2024-01-17T02:57:16.359Z,7.40
2024-01-17T03:00:20.692Z,7.13
2024-01-17T03:03:23.633Z,6.20
2024-01-17T03:06:26.485Z,6.70
2024-01-17T03:09:30.123Z,6.13
2024-01-17T03:12:32.950Z,6.85
2024-01-17T03:15:36.122Z,7.03
2024-01-17T03:18:39.144Z,7.25
2024-01-17T03:21:47.821Z,6.13
2024-01-17T03:24:50.818Z,6.75
2024-01-17T03:27:53.733Z,6.40
2024-01-17T03:30:57.550Z,6.15
2024-01-17T03:34:00.291Z,6.45
2024-01-17T03:37:05.441Z,6.07
2024-01-17T03:40:09.901Z,6.00
2024-01-17T03:43:13.151Z,6.00
2024-01-17T03:46:15.951Z,6.18
2024-01-17T03:49:18.864Z,6.72
2024-01-17T03:52:21.972Z,5.67
2024-01-17T03:55:24.863Z,6.50
2024-01-17T03:58:27.668Z,7.10
2024-01-17T04:01:30.445Z,6.55
2024-01-17T04:04:33.434Z,5.55
2024-01-17T04:07:36.408Z,5.50
2024-01-17T04:10:39.849Z,5.50
2024-01-17T04:13:45.826Z,8.23
2024-01-17T04:16:48.653Z,6.15
2024-01-17T04:19:51.537Z,6.00
2024-01-17T04:22:54.694Z,7.70
2024-01-17T04:25:57.287Z,6.65
2024-01-17T04:29:00.249Z,7.05
2024-01-17T04:32:03.197Z,6.40
2024-01-17T04:35:06.526Z,6.00
2024-01-17T04:38:09.421Z,6.33
2024-01-17T04:41:13.447Z,6.18
2024-01-17T04:44:16.777Z,6.32
2024-01-17T04:47:20.464Z,6.20
2024-01-17T04:50:23.199Z,5.18
2024-01-17T04:53:26.628Z,6.10
2024-01-17T04:56:30.147Z,6.18
2024-01-17T04:59:33.521Z,6.28
2024-01-17T05:02:36.688Z,7.00
2024-01-17T05:05:42.016Z,5.80
2024-01-17T05:08:45.026Z,5.03
2024-01-17T05:11:48.352Z,5.90
2024-01-17T05:14:51.783Z,5.93
2024-01-17T05:17:55.834Z,5.97
2024-01-17T05:20:58.934Z,5.13
2024-01-17T05:24:01.931Z,5.57
2024-01-17T05:27:05.202Z,5.97
2024-01-17T05:30:15.827Z,5.82
2024-01-17T05:33:19.976Z,5.82
2024-01-17T05:36:24.636Z,5.60
2024-01-17T05:39:27.624Z,5.43
2024-01-17T05:42:30.526Z,6.00
2024-01-17T05:45:33.382Z,6.07
2024-01-17T05:48:36.361Z,5.93
2024-01-17T05:51:39.233Z,5.82
2024-01-17T05:54:42.634Z,5.30
2024-01-17T05:57:45.932Z,5.85
2024-01-17T06:00:48.880Z,5.22
2024-01-17T06:03:52.871Z,5.72
2024-01-17T06:06:55.551Z,5.50
2024-01-17T06:09:58.802Z,6.07
2024-01-17T06:13:01.512Z,5.18
2024-01-17T06:16:05.247Z,6.90
2024-01-17T06:19:08.298Z,4.95
2024-01-17T06:22:11.775Z,5.50
2024-01-17T06:25:14.552Z,5.47
2024-01-17T06:28:19.501Z,6.90
2024-01-17T06:31:26.243Z,5.47
2024-01-17T06:34:29.575Z,9.13
2024-01-17T06:37:32.795Z,6.22
2024-01-17T06:40:38.544Z,5.80
2024-01-17T06:43:42.615Z,4.82
2024-01-17T06:46:45.741Z,5.95
2024-01-17T06:49:48.725Z,5.03
2024-01-17T06:52:52.110Z,6.20
2024-01-17T06:55:55.276Z,4.30
2024-01-17T06:59:00.461Z,5.72
2024-01-17T07:02:03.314Z,6.20
2024-01-17T07:05:06.558Z,8.13
2024-01-17T07:08:10.129Z,7.80
2024-01-17T07:11:32.336Z,5.30
2024-01-17T07:14:35.508Z,6.07
2024-01-17T07:17:40.678Z,6.38
2024-01-17T07:20:44.187Z,5.20
2024-01-17T07:23:49.101Z,5.07
2024-01-17T07:26:54.088Z,5.70
2024-01-17T07:29:56.712Z,5.60
2024-01-17T07:32:59.779Z,6.45
2024-01-17T07:36:02.871Z,5.88
2024-01-17T07:39:07.510Z,6.63
2024-01-17T07:42:10.741Z,6.30
2024-01-17T07:45:13.801Z,6.53
2024-01-17T07:48:19.364Z,7.40
2024-01-17T07:51:25.132Z,7.55
2024-01-17T07:54:28.254Z,8.55
2024-01-17T07:57:31.205Z,8.83
2024-01-17T08:00:34.182Z,9.88
2024-01-17T08:03:37.073Z,7.57
2024-01-17T08:06:39.873Z,8.55
2024-01-17T08:09:43.062Z,7.85
2024-01-17T08:12:46.143Z,5.60
2024-01-17T08:15:49.135Z,5.97
2024-01-17T08:18:52.238Z,7.80
2024-01-17T08:21:55.081Z,8.27
2024-01-17T08:24:57.909Z,7.45
2024-01-17T08:28:01.702Z,6.93
2024-01-17T08:31:04.904Z,7.93
2024-01-17T08:34:07.639Z,6.65
2024-01-17T08:37:11.872Z,7.07
2024-01-17T08:40:16.392Z,6.72
2024-01-17T08:43:19.235Z,7.43
2024-01-17T08:46:22.872Z,6.60
2024-01-17T08:49:26.350Z,8.05
2024-01-17T08:52:29.221Z,7.53
2024-01-17T08:55:31.981Z,6.20
2024-01-17T08:58:35.838Z,7.63
2024-01-17T09:01:39.249Z,10.27
2024-01-17T09:04:42.425Z,9.38
2024-01-17T09:07:47.071Z,8.75
2024-01-17T09:10:50.067Z,10.80
2024-01-17T09:13:53.250Z,8.73
2024-01-17T09:16:56.899Z,9.15
2024-01-17T09:19:59.941Z,9.65
2024-01-17T09:23:03.037Z,11.02
2024-01-17T09:26:06.699Z,11.15
2024-01-17T09:29:09.861Z,9.13
2024-01-17T09:32:18.018Z,10.73
2024-01-17T09:35:22.209Z,8.88
2024-01-17T09:38:25.013Z,9.02
2024-01-17T09:41:28.185Z,7.60
2024-01-17T09:44:31.480Z,9.83
2024-01-17T09:47:35.578Z,7.47
2024-01-17T09:50:38.693Z,9.48
2024-01-17T09:53:44.746Z,10.80
2024-01-17T09:56:47.993Z,8.00
2024-01-17T09:59:57.788Z,8.43
2024-01-17T10:03:04.083Z,9.25
2024-01-17T10:06:08.673Z,6.80
2024-01-17T10:09:15.641Z,9.98
2024-01-17T10:12:20.900Z,8.50
2024-01-17T10:15:25.265Z,8.63
2024-01-17T10:18:29.710Z,10.50
2024-01-17T10:21:36.595Z,11.05
2024-01-17T10:24:42.683Z,10.23
2024-01-17T10:27:49.769Z,11.40
2024-01-17T10:30:53.599Z,8.87
2024-01-17T10:33:58.167Z,11.10
2024-01-17T10:37:04.902Z,7.80
2024-01-17T10:40:11.903Z,8.13
2024-01-17T10:43:15.305Z,12.15
2024-01-17T10:46:18.422Z,9.27
2024-01-17T10:49:24.085Z,7.70
2024-01-17T10:52:28.378Z,12.73
2024-01-17T10:55:35.092Z,8.90
2024-01-17T10:58:38.861Z,9.57
2024-01-17T11:01:48.497Z,11.90
2024-01-17T11:05:00.366Z,11.93
2024-01-17T11:08:07.175Z,12.52
2024-01-17T11:11:10.958Z,11.82
2024-01-17T11:14:16.617Z,10.43
2024-01-17T11:17:26.913Z,12.40
2024-01-17T11:20:36.909Z,11.85
2024-01-17T11:23:59.819Z,8.25
2024-01-17T11:27:23.350Z,7.30
2024-01-17T11:30:53.039Z,12.00
2024-01-17T11:33:56.620Z,8.37
2024-01-17T11:36:59.674Z,11.45
2024-01-17T11:40:03.073Z,12.07
2024-01-17T11:43:06.147Z,8.82
2024-01-17T11:46:11.079Z,10.52
2024-01-17T11:49:16.082Z,9.20
2024-01-17T11:52:36.147Z,14.98
2024-01-17T11:56:02.386Z,7.00
2024-01-17T12:05:14.771Z,10.73
2024-01-17T12:08:19.400Z,13.27
2024-01-17T12:11:24.485Z,11.27
2024-01-17T12:14:32.981Z,7.28
2024-01-17T12:17:36.805Z,10.20
2024-01-17T12:20:40.080Z,9.38
2024-01-17T12:23:44.288Z,9.13
2024-01-17T12:26:48.412Z,15.82
2024-01-17T12:29:56.178Z,11.98
2024-01-17T12:32:59.102Z,10.77
2024-01-17T12:36:02.813Z,11.77
2024-01-17T12:39:13.149Z,12.27
2024-01-17T12:42:18.181Z,8.68
2024-01-17T12:45:24.612Z,8.30
2024-01-17T12:48:32.125Z,8.77
2024-01-17T12:51:35.961Z,15.40
2024-01-17T12:54:39.617Z,9.13
2024-01-17T12:57:43.373Z,12.80
2024-01-17T13:00:46.106Z,12.25
2024-01-17T13:04:06.407Z,11.40
2024-01-17T13:07:11.096Z,6.55
2024-01-17T13:10:28.622Z,11.30
2024-01-17T13:13:31.747Z,10.70
2024-01-17T13:16:34.622Z,11.73
2024-01-17T13:19:40.312Z,10.93
2024-01-17T13:22:43.899Z,8.93
2024-01-17T13:25:47.454Z,8.83
2024-01-17T13:28:50.845Z,14.57
2024-01-17T13:31:54.499Z,7.22
2024-01-17T13:34:58.063Z,13.30
2024-01-17T13:38:05.731Z,9.32
2024-01-17T13:41:10.808Z,9.80
2024-01-17T13:44:14.626Z,9.40
2024-01-17T13:47:18.994Z,9.43
2024-01-17T13:50:29.273Z,8.38
2024-01-17T13:53:42.214Z,12.40
2024-01-17T13:56:48.118Z,11.23
2024-01-17T13:59:50.726Z,7.47
2024-01-17T14:02:59.797Z,7.53
2024-01-17T14:06:03.767Z,9.82
2024-01-17T14:09:08.885Z,11.02
2024-01-17T14:12:11.726Z,8.07
2024-01-17T14:15:14.595Z,9.80
2024-01-17T14:18:17.777Z,12.85
2024-01-17T14:21:21.110Z,10.00
2024-01-17T14:24:25.301Z,10.57
2024-01-17T14:27:29.661Z,8.20
2024-01-17T14:30:34.895Z,6.85
2024-01-17T14:33:37.952Z,9.68
2024-01-17T14:36:40.859Z,7.55
2024-01-17T14:39:43.818Z,11.00
2024-01-17T14:42:46.465Z,9.23
2024-01-17T14:45:50.787Z,8.52
2024-01-17T14:48:53.864Z,9.77
2024-01-17T14:51:58.136Z,10.95
2024-01-17T14:55:01.071Z,9.65
2024-01-17T14:58:05.282Z,7.70
2024-01-17T15:01:09.709Z,11.88
2024-01-17T15:04:13.814Z,11.35
2024-01-17T15:07:16.950Z,7.90
2024-01-17T15:10:20.217Z,7.03
2024-01-17T15:13:24.667Z,7.17
2024-01-17T15:16:28.270Z,8.15
2024-01-17T15:19:30.817Z,10.90
2024-01-17T15:22:33.475Z,8.13
2024-01-17T15:25:36.490Z,13.25
2024-01-17T15:28:39.566Z,14.07
2024-01-17T15:31:42.485Z,13.43
2024-01-17T15:34:45.673Z,17.63
2024-01-17T15:37:50.261Z,11.77
2024-01-17T15:41:02.827Z,9.98
2024-01-17T15:44:05.568Z,13.17
2024-01-17T15:47:08.314Z,10.20
2024-01-17T15:50:11.030Z,9.43
2024-01-17T15:53:14.457Z,9.27
2024-01-17T15:56:17.348Z,12.68
2024-01-17T15:59:20.862Z,11.50
2024-01-17T16:02:23.576Z,10.15
2024-01-17T16:05:27.252Z,8.45
2024-01-17T16:08:30.020Z,11.65
2024-01-17T16:11:34.149Z,10.25
2024-01-17T16:14:37.060Z,12.17
2024-01-17T16:17:41.041Z,8.98
2024-01-17T16:20:44.826Z,9.13
2024-01-17T16:23:47.725Z,10.85
2024-01-17T16:26:50.834Z,10.90
2024-01-17T16:29:53.758Z,8.60
2024-01-17T16:32:58.359Z,9.35
2024-01-17T16:36:02.294Z,9.25
2024-01-17T16:39:04.949Z,9.15
2024-01-17T16:42:08.055Z,8.18
2024-01-17T16:45:12.086Z,11.50
2024-01-17T16:48:16.381Z,11.43
2024-01-17T16:51:19.051Z,9.02
2024-01-17T16:54:21.747Z,9.38
2024-01-17T16:57:24.605Z,5.72
2024-01-17T17:00:28.687Z,9.43
2024-01-17T17:03:32.783Z,10.80
2024-01-17T17:06:35.813Z,7.18
2024-01-17T17:09:38.557Z,7.60
2024-01-17T17:12:41.590Z,11.40
2024-01-17T17:15:45.088Z,9.23
2024-01-17T17:18:47.857Z,10.07
2024-01-17T17:21:50.958Z,10.13
2024-01-17T17:24:54.540Z,7.00
2024-01-17T17:27:57.309Z,10.18
2024-01-17T17:30:59.948Z,7.30
2024-01-17T17:34:03.416Z,9.38
2024-01-17T17:37:06.804Z,7.40
2024-01-17T17:40:10.154Z,8.48
2024-01-17T17:43:13.267Z,8.38
2024-01-17T17:46:16.073Z,9.67
2024-01-17T17:49:19.082Z,8.45
2024-01-17T17:52:23.264Z,9.20
2024-01-17T17:55:26.547Z,6.93
2024-01-17T17:58:29.458Z,7.07
2024-01-17T18:01:32.436Z,8.50
2024-01-17T18:04:35.380Z,5.28
2024-01-17T18:07:38.170Z,8.05
2024-01-17T18:10:40.774Z,8.07
2024-01-17T18:13:46.516Z,8.00
2024-01-17T18:16:49.478Z,8.20
2024-01-17T18:19:52.499Z,8.25
2024-01-17T18:22:56.042Z,7.60
2024-01-17T18:25:58.787Z,7.45
2024-01-17T18:29:04.353Z,7.63
2024-01-17T18:32:07.299Z,6.10
2024-01-17T18:35:10.339Z,6.75
2024-01-17T18:38:13.522Z,6.63
2024-01-17T18:41:17.604Z,7.13
2024-01-17T18:44:23.060Z,6.75
2024-01-17T18:47:25.802Z,7.60
2024-01-17T18:50:28.468Z,6.65
2024-01-17T18:53:31.781Z,7.70
2024-01-17T18:56:35.060Z,6.38
2024-01-17T18:59:38.009Z,4.93
2024-01-17T19:02:40.941Z,7.33
2024-01-17T19:05:44.569Z,6.80
2024-01-17T19:08:47.461Z,7.28
2024-01-17T19:11:52.197Z,7.07
2024-01-17T19:14:55.608Z,7.07
2024-01-17T19:17:58.505Z,5.23
2024-01-17T19:21:02.310Z,5.80
2024-01-17T19:24:06.083Z,7.70
2024-01-17T19:27:09.135Z,7.72
2024-01-17T19:30:17.083Z,7.13
2024-01-17T19:33:20.778Z,6.23
2024-01-17T19:36:23.748Z,5.75
2024-01-17T19:39:27.290Z,6.47
2024-01-17T19:42:32.831Z,7.32
2024-01-17T19:45:35.922Z,8.10
2024-01-17T19:48:38.874Z,7.37
2024-01-17T19:51:41.705Z,5.63
2024-01-17T19:54:50.459Z,6.25
2024-01-17T19:57:53.135Z,8.27
2024-01-17T20:00:58.319Z,5.40
2024-01-17T20:04:01.585Z,5.60
2024-01-17T20:07:05.873Z,7.00
2024-01-17T20:10:08.986Z,6.88
2024-01-17T20:13:11.601Z,6.80
2024-01-17T20:16:15.612Z,6.97
2024-01-17T20:19:19.387Z,6.33
2024-01-17T20:22:25.004Z,5.72
2024-01-17T20:25:27.609Z,5.30
2024-01-17T20:28:32.454Z,5.30
2024-01-17T20:31:35.073Z,5.70
2024-01-17T20:34:38.019Z,7.10
2024-01-17T20:37:40.893Z,6.60
2024-01-17T20:40:43.621Z,6.25
2024-01-17T20:43:46.722Z,6.65
2024-01-17T20:46:50.265Z,6.72
2024-01-17T20:49:53.407Z,6.23
2024-01-17T20:52:56.107Z,5.65
2024-01-17T20:55:59.048Z,5.00
2024-01-17T20:59:01.876Z,5.97
2024-01-17T21:02:05.003Z,5.05
2024-01-17T21:05:08.394Z,6.23
2024-01-17T21:08:11.455Z,8.02
2024-01-17T21:11:14.034Z,6.00
2024-01-17T21:14:16.618Z,7.60
2024-01-17T21:17:19.476Z,4.80
2024-01-17T21:20:22.240Z,6.40
2024-01-17T21:23:28.346Z,7.15
2024-01-17T21:26:32.934Z,9.40
2024-01-17T21:29:35.958Z,5.45
2024-01-17T21:32:39.853Z,4.53
2024-01-17T21:35:42.532Z,5.30
2024-01-17T21:38:45.091Z,4.85
2024-01-17T21:41:47.902Z,5.28
2024-01-17T21:44:50.649Z,4.88
2024-01-17T21:47:53.333Z,5.18
2024-01-17T21:50:56.079Z,4.37
2024-01-17T21:53:58.969Z,4.82
2024-01-17T21:57:01.783Z,6.05
2024-01-17T22:00:05.942Z,4.75
2024-01-17T22:03:15.284Z,5.43
2024-01-17T22:06:19.077Z,5.67
2024-01-17T22:09:21.693Z,5.18
2024-01-17T22:12:24.355Z,5.47
2024-01-17T22:15:27.975Z,5.07
2024-01-17T22:18:31.705Z,4.78
2024-01-17T22:21:35.447Z,4.50
2024-01-17T22:24:38.406Z,4.53
2024-01-17T22:27:41.306Z,6.07
2024-01-17T22:30:44.243Z,4.97
2024-01-17T22:33:47.229Z,4.68
2024-01-17T22:36:49.866Z,5.63
2024-01-17T22:39:52.821Z,5.20
2024-01-17T22:42:55.681Z,6.05
2024-01-17T22:45:59.298Z,5.13
2024-01-17T22:49:02.467Z,5.00
2024-01-17T22:52:05.364Z,4.10
2024-01-17T22:55:09.407Z,5.50
2024-01-17T22:58:13.110Z,4.93
2024-01-17T23:01:17.215Z,5.38
2024-01-17T23:04:20.130Z,4.97
2024-01-17T23:07:23.053Z,4.90
2024-01-17T23:10:26.938Z,4.50
2024-01-17T23:13:32.282Z,5.72
2024-01-17T23:16:35.368Z,4.97
2024-01-17T23:19:38.233Z,5.22
2024-01-17T23:22:41.236Z,4.30
2024-01-17T23:25:44.895Z,3.97
2024-01-17T23:28:47.886Z,4.57
2024-01-17T23:31:50.731Z,4.65
2024-01-17T23:34:53.429Z,6.32
2024-01-17T23:37:57.007Z,6.07
2024-01-17T23:40:59.618Z,5.03
2024-01-17T23:44:02.376Z,5.93
2024-01-17T23:47:04.999Z,4.10
2024-01-17T23:50:10.767Z,4.38
2024-01-17T23:53:14.077Z,4.97
2024-01-17T23:56:16.980Z,3.90
2024-01-17T23:59:19.733Z,4.63
